METAR Data
IDs: Format: Raw Decoded Include TAF

Data at: 0154 UTC 01 Mar 2021

KFPK 010135Z AUTO 26009G18KT 10SM OVC018 05/02 A2972 RMK AO2 T00470018